Bridel, Luxembourg
Current Conditions -  °F | °C
As of 4:50 PM on Saturday 20 Dec 2014 (Local Time) from ELLX Reporting Station
Broken Clouds Broken Clouds  
Wind Chill: 34°   Ceiling: 3400
Heat Index: 41°   Visibility: 6mi
Dew Point: 37°   Wind: 12mph
Humidity: 87%   Direction: 270°W
Pressure: 30.24"   Gusts: NA
Location:  49.66°N, 6.08°E
Report Text: ELLX 201550Z 27010KT 230V300 9999 BKN034 05/03 Q1024 NOSIG
Loading
Personal Weather Stations






























Interactive Weather Map New forecast layout! Learn more

10-Day Weather Forecast

Advertisements
Track Severe Weather on mobile